Time;durP1;ratioP1;P1;durP2;ratioP2;P2;SDS_P1;SDS_P2;PMS_P1;PMS_P2;Temp;Humidity;BMP_temperature;BMP_pressure;BME280_temperature;BME280_humidity;BME280_pressure;Samples;Min_cycle;Max_cycle;Signal;HPM_P1;HPM_P2
2022/08/11 00:00:06;;;;;;;0.50;0.50;;;;;;;19.32;56.51;95854.34;4298715;33;20194;-61
2022/08/11 00:02:37;;;;;;;0.80;0.80;;;;;;;19.40;57.71;95856.91;4300124;33;20221;-60
2022/08/11 00:05:07;;;;;;;1.30;0.63;;;;;;;19.44;57.61;95859.72;4300119;33;20213;-60
2022/08/11 00:07:40;;;;;;;0.53;0.53;;;;;;;19.26;58.43;95858.38;4292528;33;20245;-60
2022/08/11 00:10:09;;;;;;;1.30;1.10;;;;;;;19.28;56.99;95853.44;4299478;33;20202;-60
2022/08/11 00:12:35;;;;;;;0.90;0.90;;;;;;;19.09;57.79;95852.09;4289493;33;20303;-61
2022/08/11 00:15:01;;;;;;;0.40;0.40;;;;;;;19.16;57.23;95849.59;4298543;33;20202;-60
2022/08/11 00:17:29;;;;;;;0.50;0.50;;;;;;;19.09;58.09;95857.47;4285828;33;20205;-60
2022/08/11 00:20:02;;;;;;;0.80;0.80;;;;;;;18.99;58.14;95854.41;4297750;33;20202;-61
2022/08/11 00:22:29;;;;;;;0.57;0.57;;;;;;;18.99;58.23;95857.88;4299912;33;20229;-60
2022/08/11 00:24:55;;;;;;;0.73;0.73;;;;;;;18.93;59.50;95859.19;4286572;33;20238;-61
2022/08/11 00:27:32;;;;;;;0.73;0.73;;;;;;;19.00;58.47;95859.44;4297170;33;20198;-60
2022/08/11 00:29:57;;;;;;;0.63;0.63;;;;;;;19.15;59.26;95861.47;4298183;33;20194;-60
2022/08/11 00:32:23;;;;;;;0.63;0.63;;;;;;;19.21;57.92;95860.16;4298199;33;20212;-61
2022/08/11 00:34:49;;;;;;;2.67;0.97;;;;;;;19.28;59.33;95858.81;4299292;33;20220;-61
2022/08/11 00:37:20;;;;;;;0.67;0.67;;;;;;;19.27;58.52;95868.00;4292320;33;20270;-61
2022/08/11 00:39:50;;;;;;;2.10;0.80;;;;;;;19.10;57.71;95856.34;4293084;33;20194;-61
2022/08/11 00:42:16;;;;;;;0.40;0.40;;;;;;;19.00;58.44;95870.22;4297395;33;20183;-61
2022/08/11 00:44:58;;;;;;;0.70;0.70;;;;;;;19.10;59.74;95867.09;4299501;33;20182;-61
2022/08/11 00:47:35;;;;;;;0.63;0.33;;;;;;;19.18;59.69;95860.81;4297804;33;20212;-60
2022/08/11 00:50:13;;;;;;;1.10;0.73;;;;;;;19.23;59.31;95868.69;4294693;33;20205;-60
2022/08/11 00:53:01;;;;;;;0.70;0.70;;;;;;;19.36;58.62;95866.78;4288257;33;20190;-61
2022/08/11 00:55:45;;;;;;;0.53;0.53;;;;;;;19.40;58.43;95859.59;4298224;33;20266;-61
2022/08/11 00:58:35;;;;;;;0.37;0.37;;;;;;;19.28;58.59;95865.00;4293801;33;20186;-61
2022/08/11 01:01:15;;;;;;;0.57;0.57;;;;;;;19.19;58.38;95862.41;4297216;33;20282;-60
2022/08/11 01:04:18;;;;;;;0.63;0.60;;;;;;;19.31;59.73;95858.16;4296465;33;20193;-61
2022/08/11 01:06:52;;;;;;;0.77;0.77;;;;;;;19.37;58.01;95857.59;4283999;33;20194;-61
2022/08/11 01:09:59;;;;;;;0.77;0.77;;;;;;;19.39;58.97;95854.56;4295721;33;20205;-61
2022/08/11 01:12:39;;;;;;;0.60;0.60;;;;;;;19.46;58.66;95849.41;4294309;33;20233;-60
2022/08/11 01:15:24;;;;;;;1.97;1.00;;;;;;;19.38;58.48;95853.78;4298215;33;20209;-60
2022/08/11 01:18:36;;;;;;;0.90;0.90;;;;;;;19.37;58.86;95848.72;4289900;33;20246;-60
2022/08/11 01:21:21;;;;;;;0.70;0.70;;;;;;;19.40;58.37;95850.75;4279179;33;20240;-61
2022/08/11 01:24:23;;;;;;;0.47;0.47;;;;;;;19.50;59.31;95847.66;4275173;33;20198;-61
2022/08/11 01:27:19;;;;;;;0.67;0.67;;;;;;;19.55;58.74;95847.41;4283259;33;20209;-61
2022/08/11 01:29:48;;;;;;;0.70;0.70;;;;;;;19.66;59.04;95847.75;4293866;33;20249;-60
2022/08/11 01:32:46;;;;;;;0.63;0.63;;;;;;;19.43;58.08;95852.78;4294686;33;20230;-61
2022/08/11 01:35:32;;;;;;;0.80;0.80;;;;;;;19.49;57.59;95849.53;4293227;33;20258;-61
2022/08/11 01:38:23;;;;;;;0.73;0.73;;;;;;;19.49;59.01;95846.06;4279635;33;20187;-61
2022/08/11 01:41:19;;;;;;;2.67;0.83;;;;;;;19.50;58.40;95850.34;4267418;33;20244;-61
2022/08/11 01:50:35;;;;;;;0.77;0.77;;;;;;;19.52;58.12;95842.72;4294580;33;20217;-61
2022/08/11 01:53:33;;;;;;;0.47;0.47;;;;;;;19.61;58.91;95845.28;4284535;33;20256;-60
2022/08/11 01:56:13;;;;;;;0.80;0.80;;;;;;;19.59;58.02;95840.22;4285770;33;20209;-60
2022/08/11 01:59:17;;;;;;;0.60;0.60;;;;;;;19.55;59.59;95844.72;4286205;33;20221;-61
2022/08/11 02:02:13;;;;;;;0.47;0.47;;;;;;;19.42;59.03;95846.59;4298658;33;20228;-61
2022/08/11 02:05:13;;;;;;;1.37;1.10;;;;;;;19.28;59.05;95831.91;4289594;33;20199;-61
2022/08/11 02:08:22;;;;;;;0.67;0.67;;;;;;;19.17;58.33;95836.94;4298033;33;20217;-61
2022/08/11 02:13:59;;;;;;;0.90;0.90;;;;;;;19.29;58.99;95834.28;4299197;33;20370;-61
2022/08/11 02:16:43;;;;;;;0.47;0.47;;;;;;;19.05;58.64;95829.66;4288046;33;20249;-60
2022/08/11 02:25:37;;;;;;;0.93;0.60;;;;;;;19.39;58.80;95827.66;4282231;33;20228;-61
2022/08/11 02:28:11;;;;;;;0.67;0.67;;;;;;;19.30;59.11;95825.09;4295102;33;20217;-61
2022/08/11 02:33:21;;;;;;;0.47;0.47;;;;;;;19.44;60.49;95830.13;4300155;33;20189;-60
2022/08/11 02:33:37;;;;;;;0.60;0.60;;;;;;;19.27;60.13;95835.72;4281295;33;20195;-60
2022/08/11 02:36:05;;;;;;;0.57;0.57;;;;;;;19.26;59.96;95829.56;4292688;33;20191;-60
2022/08/11 02:38:48;;;;;;;1.07;1.07;;;;;;;19.13;60.17;95826.06;4282953;33;20416;-60
2022/08/11 02:45:00;;;;;;;1.50;1.03;;;;;;;19.04;60.80;95825.41;4280861;33;20202;-61
2022/08/11 02:47:40;;;;;;;0.93;0.93;;;;;;;18.90;61.02;95824.94;4298060;33;20201;-61
2022/08/11 02:50:20;;;;;;;0.40;0.40;;;;;;;19.01;61.01;95828.75;4293374;33;20186;-60
2022/08/11 02:53:02;;;;;;;0.33;0.33;;;;;;;18.99;61.65;95828.28;4273593;33;20221;-60
2022/08/11 02:55:48;;;;;;;0.73;0.73;;;;;;;19.13;61.18;95830.66;4293007;33;20212;-61
2022/08/11 02:59:49;;;;;;;1.20;1.20;;;;;;;19.20;61.29;95830.91;4295093;33;20268;-61
2022/08/11 03:01:51;;;;;;;0.80;0.80;;;;;;;19.06;60.06;95828.53;4286865;33;20195;-60
2022/08/11 03:04:24;;;;;;;0.57;0.57;;;;;;;18.87;60.82;95829.06;4285472;33;20212;-61
2022/08/11 03:07:13;;;;;;;0.63;0.63;;;;;;;18.94;60.96;95828.50;4286311;33;20191;-61
2022/08/11 03:09:48;;;;;;;8.53;1.67;;;;;;;19.08;61.38;95820.12;4285519;33;20368;-61
2022/08/11 03:18:25;;;;;;;0.60;0.60;;;;;;;18.97;60.56;95827.84;4295591;33;20296;-61
2022/08/11 03:21:06;;;;;;;0.93;0.93;;;;;;;19.01;60.68;95828.75;4278372;33;20265;-60
2022/08/11 03:23:51;;;;;;;0.90;0.90;;;;;;;18.93;61.20;95826.94;4288840;33;20210;-60
2022/08/11 03:26:52;;;;;;;0.90;0.90;;;;;;;18.83;60.76;95827.38;4299291;33;20240;-60
2022/08/11 03:29:45;;;;;;;1.37;0.93;;;;;;;18.60;61.52;95826.19;4270554;33;20195;-61
2022/08/11 03:32:25;;;;;;;0.60;0.60;;;;;;;18.73;61.88;95828.56;4270551;33;20241;-61
2022/08/11 03:34:54;;;;;;;0.73;0.73;;;;;;;18.87;61.28;95826.38;4286046;33;20257;-61
2022/08/11 03:37:49;;;;;;;0.83;0.83;;;;;;;18.89;61.55;95826.06;4273449;33;20250;-61
2022/08/11 03:43:16;;;;;;;1.07;1.03;;;;;;;18.96;60.82;95831.66;4291620;33;20262;-61
2022/08/11 03:46:16;;;;;;;0.80;0.80;;;;;;;18.79;61.48;95829.94;4274086;33;20202;-61
2022/08/11 03:49:19;;;;;;;0.87;0.87;;;;;;;18.69;61.89;95822.31;4284349;33;20332;-61
2022/08/11 03:52:03;;;;;;;0.80;0.80;;;;;;;18.39;62.40;95827.00;4283087;33;20252;-61
2022/08/11 03:54:34;;;;;;;3.33;1.60;;;;;;;18.49;62.83;95833.88;4284775;33;20229;-61
2022/08/11 03:57:18;;;;;;;1.07;0.97;;;;;;;18.53;62.13;95826.69;4272928;33;20191;-60
2022/08/11 04:00:01;;;;;;;1.23;1.13;;;;;;;18.65;62.87;95826.78;4280424;33;20217;-60
2022/08/11 04:02:54;;;;;;;0.40;0.40;;;;;;;18.53;63.45;95827.50;4265539;33;20183;-60
2022/08/11 04:05:38;;;;;;;2.00;1.10;;;;;;;18.72;62.28;95826.22;4264703;33;20195;-61
2022/08/11 04:08:03;;;;;;;0.73;0.73;;;;;;;18.52;62.24;95823.22;4259786;33;20203;-60
2022/08/11 04:11:00;;;;;;;0.77;0.77;;;;;;;18.46;62.93;95823.78;4271013;33;20191;-61
2022/08/11 04:17:18;;;;;;;0.83;0.83;;;;;;;18.88;62.86;95819.09;4263277;33;20234;-61
2022/08/11 04:20:07;;;;;;;0.83;0.83;;;;;;;18.82;62.73;95820.44;4268112;33;20202;-61
2022/08/11 04:23:08;;;;;;;0.63;0.63;;;;;;;18.74;62.76;95818.59;4269597;33;20218;-60
2022/08/11 04:25:40;;;;;;;0.70;0.70;;;;;;;18.66;62.76;95817.59;4248962;33;20203;-61
2022/08/11 04:28:17;;;;;;;0.53;0.53;;;;;;;18.81;62.42;95824.25;4267922;33;20203;-60
2022/08/11 04:30:56;;;;;;;0.60;0.60;;;;;;;18.72;62.11;95821.63;4266200;33;20214;-61
2022/08/11 04:33:48;;;;;;;1.53;1.43;;;;;;;18.64;62.37;95814.47;4269337;33;20257;-60
2022/08/11 04:37:31;;;;;;;0.60;0.60;;;;;;;18.73;62.62;95823.19;4266968;33;20199;-61
2022/08/11 04:39:31;;;;;;;0.67;0.67;;;;;;;18.55;62.83;95817.19;4257820;33;20248;-61
2022/08/11 04:45:25;;;;;;;1.03;0.90;;;;;;;18.59;63.60;95819.22;4275236;33;20325;-60
2022/08/11 05:03:21;;;;;;;0.87;0.87;;;;;;;18.62;62.09;95842.78;4281527;33;20288;-60
2022/08/11 05:06:16;;;;;;;1.03;1.03;;;;;;;18.50;63.55;95838.87;4238536;33;20244;-61
2022/08/11 05:09:02;;;;;;;0.90;0.90;;;;;;;18.25;62.67;95837.25;4243110;33;20183;-61
2022/08/11 05:12:14;;;;;;;0.67;0.67;;;;;;;18.15;63.59;95835.72;4271981;33;20190;-60
2022/08/11 05:34:52;;;;;;;3.13;1.87;;;;;;;18.54;63.78;95839.81;4286568;33;20262;-61
2022/08/11 05:37:37;;;;;;;1.77;1.20;;;;;;;18.61;64.51;95827.78;4283937;33;20207;-60
2022/08/11 05:57:03;;;;;;;1.80;1.70;;;;;;;18.39;61.68;95834.28;4278610;33;20208;-60
2022/08/11 05:59:31;;;;;;;1.20;1.20;;;;;;;18.45;61.68;95836.44;4263906;33;20207;-60
2022/08/11 06:02:02;;;;;;;0.93;0.93;;;;;;;18.40;61.63;95836.62;4272192;33;20206;-60
2022/08/11 06:04:28;;;;;;;1.33;1.23;;;;;;;18.22;63.04;95840.59;4272775;33;20205;-60
2022/08/11 06:06:57;;;;;;;1.03;1.03;;;;;;;18.14;62.73;95828.00;4281639;33;20236;-60
2022/08/11 06:09:49;;;;;;;1.33;1.33;;;;;;;18.17;62.71;95846.94;4260621;33;20254;-61
2022/08/11 06:12:20;;;;;;;1.63;1.53;;;;;;;18.06;63.75;95826.19;4270468;33;20215;-60
2022/08/11 06:14:52;;;;;;;1.20;1.10;;;;;;;18.22;63.19;95834.44;4269212;33;20234;-60
2022/08/11 06:17:45;;;;;;;7.93;1.50;;;;;;;18.53;63.70;95829.38;4275891;33;20199;-60
2022/08/11 06:20:12;;;;;;;0.60;0.60;;;;;;;18.70;62.71;95833.84;4273189;33;20214;-63
2022/08/11 06:22:38;;;;;;;0.80;0.80;;;;;;;18.77;62.13;95834.88;4275990;33;20242;-60
2022/08/11 06:25:06;;;;;;;0.77;0.77;;;;;;;18.91;62.16;95834.56;4275075;33;20260;-60
2022/08/11 06:27:34;;;;;;;1.00;1.00;;;;;;;18.96;61.52;95837.03;4258796;33;20206;-60
2022/08/11 06:30:01;;;;;;;1.60;1.50;;;;;;;19.00;61.54;95837.94;4271248;33;20191;-59
2022/08/11 06:32:31;;;;;;;0.70;0.70;;;;;;;19.11;60.79;95838.31;4271093;33;20199;-59
2022/08/11 06:35:22;;;;;;;0.93;0.93;;;;;;;19.27;61.06;95841.13;4264864;33;20213;-60
2022/08/11 06:38:02;;;;;;;1.23;1.07;;;;;;;19.42;60.69;95848.50;4274374;33;20215;-60
2022/08/11 06:44:12;;;;;;;1.50;1.40;;;;;;;19.52;59.84;95845.41;4275046;33;20209;-60
2022/08/11 06:46:41;;;;;;;0.67;0.67;;;;;;;19.54;59.54;95837.75;4269044;33;20191;-60
2022/08/11 06:51:55;;;;;;;0.43;0.43;;;;;;;19.70;58.28;95844.06;4278008;33;20229;-60
2022/08/11 06:54:21;;;;;;;0.77;0.77;;;;;;;19.56;59.18;95844.38;4262243;33;20231;-59
2022/08/11 07:03:21;;;;;;;0.83;0.83;;;;;;;19.72;58.23;95849.88;4255012;33;20254;-59
2022/08/11 07:05:57;;;;;;;0.90;0.90;;;;;;;19.75;57.98;95851.88;4251531;33;20190;-59
2022/08/11 07:17:48;;;;;;;1.07;1.07;;;;;;;20.05;56.81;95846.22;4284045;33;20229;-60
2022/08/11 07:28:59;;;;;;;1.33;1.23;;;;;;;20.06;56.20;95842.41;4264651;33;20206;-59
2022/08/11 07:31:27;;;;;;;2.57;1.27;;;;;;;19.99;57.08;95844.88;4270796;33;20194;-59
2022/08/11 07:34:04;;;;;;;0.47;0.47;;;;;;;19.96;56.52;95834.78;4279202;33;20224;-61
2022/08/11 07:36:30;;;;;;;0.90;0.90;;;;;;;20.09;56.64;95826.34;4286492;33;20198;-61
2022/08/11 07:38:57;;;;;;;2.67;0.93;;;;;;;20.13;56.35;95832.63;4286360;33;20249;-61
2022/08/11 07:41:24;;;;;;;0.67;0.67;;;;;;;20.17;56.29;95830.00;4272363;33;20191;-61
2022/08/11 07:43:53;;;;;;;1.23;1.23;;;;;;;20.19;56.29;95819.69;4280732;33;20206;-61
2022/08/11 07:54:37;;;;;;;0.70;0.70;;;;;;;20.38;55.87;95827.94;4283481;33;20205;-61
2022/08/11 08:19:13;;;;;;;1.10;1.10;;;;;;;20.75;55.99;95822.41;4277459;33;20225;-61
2022/08/11 08:21:38;;;;;;;0.80;0.80;;;;;;;20.81;55.97;95826.38;4285516;33;20187;-63
2022/08/11 08:24:05;;;;;;;2.40;1.40;;;;;;;20.93;55.82;95829.03;4293338;33;20194;-61
2022/08/11 08:32:03;;;;;;;1.00;1.00;;;;;;;21.02;55.51;95826.94;4281665;33;20228;-60
2022/08/11 08:34:28;;;;;;;0.63;0.63;;;;;;;21.07;56.06;95826.69;4284120;33;20194;-61
2022/08/11 08:36:54;;;;;;;1.00;1.00;;;;;;;21.12;55.75;95831.81;4282300;33;20205;-61
2022/08/11 08:39:20;;;;;;;4.40;1.30;;;;;;;21.20;55.45;95830.88;4282962;33;20187;-61
2022/08/11 08:41:56;;;;;;;1.07;1.07;;;;;;;21.22;55.37;95825.13;4280228;33;20284;-61
2022/08/11 08:44:23;;;;;;;1.30;1.07;;;;;;;21.18;55.55;95816.94;4284504;33;20200;-61
2022/08/11 08:46:53;;;;;;;0.90;0.83;;;;;;;21.26;55.98;95826.78;4287885;33;20229;-61
2022/08/11 08:49:25;;;;;;;0.90;0.77;;;;;;;21.35;55.21;95823.94;4284160;33;20258;-61
2022/08/11 08:52:00;;;;;;;2.17;0.77;;;;;;;21.33;55.71;95820.78;4270324;33;20197;-61
2022/08/11 08:54:37;;;;;;;1.00;1.00;;;;;;;21.49;54.90;95826.16;4271545;33;20229;-61
2022/08/11 08:57:05;;;;;;;1.80;1.00;;;;;;;21.53;54.19;95829.75;4283348;33;20289;-61
2022/08/11 08:59:35;;;;;;;0.87;0.87;;;;;;;21.57;54.19;95822.50;4291323;33;20317;-61
2022/08/11 09:02:03;;;;;;;2.37;1.23;;;;;;;21.53;54.35;95824.34;4291109;33;20187;-62
2022/08/11 09:04:30;;;;;;;0.67;0.67;;;;;;;21.67;53.64;95821.97;4280411;33;20210;-61
2022/08/11 09:07:05;;;;;;;0.97;0.97;;;;;;;21.75;53.28;95831.00;4270534;33;20226;-59
2022/08/11 09:09:31;;;;;;;0.77;0.77;;;;;;;21.72;53.25;95820.91;4285966;33;20254;-60
2022/08/11 09:11:57;;;;;;;1.07;1.07;;;;;;;21.84;53.13;95831.59;4285806;33;20201;-60
2022/08/11 09:14:59;;;;;;;0.80;0.80;;;;;;;21.97;52.80;95819.53;4280234;33;20265;-59
2022/08/11 09:17:11;;;;;;;1.03;0.50;;;;;;;22.01;52.43;95822.34;4290095;33;20190;-60
2022/08/11 09:19:36;;;;;;;0.27;0.27;;;;;;;22.05;52.67;95829.38;4286718;33;20190;-61
2022/08/11 09:27:32;;;;;;;0.63;0.63;;;;;;;22.29;51.50;95820.22;4295656;33;20318;-60
2022/08/11 09:29:58;;;;;;;0.80;0.80;;;;;;;22.35;51.26;95829.63;4297956;33;20249;-61
2022/08/11 09:32:25;;;;;;;0.60;0.60;;;;;;;22.42;50.86;95832.47;4284279;33;20195;-60
2022/08/11 09:34:51;;;;;;;0.47;0.47;;;;;;;22.49;50.54;95831.81;4274504;33;20209;-61
2022/08/11 09:45:36;;;;;;;0.60;0.60;;;;;;;22.78;49.21;95831.25;4287664;33;20256;-61
2022/08/11 09:48:06;;;;;;;0.60;0.60;;;;;;;22.88;48.90;95837.97;4282558;33;20185;-60
2022/08/11 09:50:33;;;;;;;0.47;0.47;;;;;;;22.79;48.72;95829.31;4292079;33;20305;-61
2022/08/11 09:53:00;;;;;;;0.90;0.90;;;;;;;22.72;49.63;95829.94;4272132;33;20218;-60
2022/08/11 09:55:25;;;;;;;0.20;0.20;;;;;;;22.90;48.72;95828.34;4283978;33;20211;-61
2022/08/11 10:00:36;;;;;;;1.40;1.20;;;;;;;22.95;48.46;95822.66;4288402;33;20213;-61
2022/08/11 10:03:06;;;;;;;0.60;0.60;;;;;;;23.14;47.78;95818.31;4283485;33;20195;-62
2022/08/11 10:08:18;;;;;;;0.70;0.70;;;;;;;23.24;46.86;95815.81;4280558;33;20260;-59
2022/08/11 10:10:45;;;;;;;0.90;0.90;;;;;;;23.33;46.86;95825.59;4280135;33;20214;-60
2022/08/11 10:13:24;;;;;;;0.63;0.63;;;;;;;23.41;46.30;95813.75;4294529;33;20194;-63
2022/08/11 10:15:53;;;;;;;0.73;0.73;;;;;;;23.45;46.10;95814.59;4278084;33;20206;-61
2022/08/11 10:18:50;;;;;;;0.47;0.47;;;;;;;23.41;46.25;95809.09;4288472;33;20194;-61
2022/08/11 10:21:36;;;;;;;0.77;0.77;;;;;;;23.47;45.87;95815.78;4277637;33;20191;-61
2022/08/11 10:27:05;;;;;;;0.73;0.73;;;;;;;23.61;46.08;95798.97;4279518;33;20234;-61
2022/08/11 10:35:25;;;;;;;2.30;1.07;;;;;;;23.90;44.93;95802.88;4271103;33;20234;-61
2022/08/11 10:37:51;;;;;;;0.47;0.47;;;;;;;23.85;44.95;95795.06;4285268;33;20191;-61
2022/08/11 10:40:21;;;;;;;0.60;0.60;;;;;;;23.77;45.70;95796.88;4295269;33;20292;-61
2022/08/11 10:43:05;;;;;;;0.73;0.53;;;;;;;23.89;45.05;95806.75;4283999;33;20254;-61
2022/08/11 10:48:23;;;;;;;0.40;0.40;;;;;;;23.94;44.90;95784.72;4284816;33;20251;-63
2022/08/11 10:59:08;;;;;;;0.93;0.93;;;;;;;24.13;44.58;95786.50;4285860;33;20216;-61
2022/08/11 11:01:37;;;;;;;0.53;0.53;;;;;;;24.23;44.23;95792.06;4283551;33;20206;-61
2022/08/11 11:04:10;;;;;;;0.50;0.50;;;;;;;24.10;44.85;95784.53;4285990;33;20199;-61
2022/08/11 11:06:54;;;;;;;0.77;0.77;;;;;;;24.13;44.43;95778.34;4298851;33;20206;-61
2022/08/11 11:09:31;;;;;;;0.53;0.53;;;;;;;24.06;44.80;95764.75;4289343;33;20206;-61
2022/08/11 11:18:18;;;;;;;0.50;0.50;;;;;;;24.24;44.65;95768.47;4286726;33;20213;-61
2022/08/11 11:20:57;;;;;;;0.80;0.80;;;;;;;24.35;44.22;95763.94;4270774;33;20205;-62
2022/08/11 11:23:46;;;;;;;0.50;0.50;;;;;;;24.34;44.17;95773.22;4275968;33;20214;-61
2022/08/11 11:26:37;;;;;;;0.70;0.70;;;;;;;24.32;44.15;95772.81;4283838;33;20195;-62
2022/08/11 11:29:32;;;;;;;0.60;0.60;;;;;;;24.34;44.12;95773.22;4276471;33;20238;-62
2022/08/11 11:32:15;;;;;;;0.83;0.83;;;;;;;24.33;44.23;95767.00;4285740;33;20197;-61
2022/08/11 11:35:15;;;;;;;0.27;0.27;;;;;;;24.33;43.66;95766.22;4284095;33;20202;-63
2022/08/11 11:37:43;;;;;;;0.77;0.77;;;;;;;24.51;43.39;95767.22;4286184;33;20222;-61
2022/08/11 11:40:11;;;;;;;0.77;0.77;;;;;;;24.60;43.05;95756.06;4286461;33;20213;-61
2022/08/11 11:42:39;;;;;;;0.97;0.97;;;;;;;24.63;43.04;95758.81;4273455;33;20199;-63
2022/08/11 11:45:07;;;;;;;0.63;0.63;;;;;;;24.68;42.62;95757.69;4285405;33;20199;-61
2022/08/11 11:47:34;;;;;;;1.07;1.07;;;;;;;24.50;43.12;95746.69;4285942;33;20194;-60
2022/08/11 11:50:01;;;;;;;0.50;0.50;;;;;;;24.62;42.34;95748.31;4272395;33;20258;-61
2022/08/11 11:52:27;;;;;;;0.50;0.50;;;;;;;24.67;42.32;95751.50;4264508;33;20242;-61
2022/08/11 11:54:56;;;;;;;1.13;0.77;;;;;;;24.56;42.46;95750.59;4274387;33;20258;-61
2022/08/11 12:03:00;;;;;;;0.53;0.53;;;;;;;24.76;41.79;95755.81;4271553;33;20201;-60
2022/08/11 12:05:26;;;;;;;0.63;0.63;;;;;;;24.84;41.86;95755.53;4280518;33;20230;-60
2022/08/11 12:10:39;;;;;;;8.43;1.00;;;;;;;24.76;42.00;95744.97;4272157;33;20213;-61
2022/08/11 12:15:51;;;;;;;0.83;0.57;;;;;;;24.88;41.90;95742.75;4271570;33;20225;-61
2022/08/11 12:18:17;;;;;;;0.70;0.70;;;;;;;24.94;41.37;95733.13;4271227;33;20245;-60
2022/08/11 12:20:44;;;;;;;0.73;0.73;;;;;;;24.99;41.02;95745.59;4271620;33;20283;-61
2022/08/11 12:28:41;;;;;;;0.47;0.40;;;;;;;25.00;40.78;95739.00;4263430;33;20258;-61
2022/08/11 12:31:08;;;;;;;1.00;1.00;;;;;;;24.96;40.83;95744.41;4270422;33;20195;-60
2022/08/11 12:33:35;;;;;;;1.13;0.37;;;;;;;24.95;40.95;95731.19;4257969;33;20242;-63
2022/08/11 12:36:01;;;;;;;0.77;0.77;;;;;;;24.97;40.44;95726.94;4271011;33;20190;-61
2022/08/11 12:38:26;;;;;;;0.50;0.50;;;;;;;25.01;40.67;95726.97;4270009;33;20254;-62
2022/08/11 12:46:33;;;;;;;0.90;0.90;;;;;;;25.23;39.94;95726.00;4270228;33;20218;-61
2022/08/11 12:52:00;;;;;;;0.20;0.20;;;;;;;25.31;39.74;95708.59;4283573;33;20282;-61
2022/08/11 12:54:55;;;;;;;0.50;0.50;;;;;;;25.31;39.76;95711.31;4272282;33;20186;-60
2022/08/11 13:06:06;;;;;;;0.37;0.37;;;;;;;25.33;39.68;95714.44;4285099;33;20204;-62
2022/08/11 13:08:35;;;;;;;0.83;0.40;;;;;;;25.36;39.19;95699.28;4277947;33;20296;-61
2022/08/11 13:13:53;;;;;;;0.33;0.33;;;;;;;25.46;38.61;95692.38;4294755;33;20217;-62
2022/08/11 13:16:21;;;;;;;0.57;0.53;;;;;;;25.36;39.30;95698.53;4271936;33;20225;-61
2022/08/11 13:18:47;;;;;;;1.57;1.47;;;;;;;25.50;38.76;95704.03;4271162;33;20252;-61
2022/08/11 13:21:14;;;;;;;0.53;0.53;;;;;;;25.45;38.89;95693.53;4270868;33;20198;-62
2022/08/11 13:23:40;;;;;;;0.63;0.63;;;;;;;25.42;38.52;95697.00;4292580;33;20249;-60
2022/08/11 13:26:09;;;;;;;0.77;0.77;;;;;;;25.46;38.88;95692.38;4290624;33;20198;-61
2022/08/11 13:28:39;;;;;;;0.57;0.57;;;;;;;25.45;38.92;95690.81;4284976;33;20241;-61
2022/08/11 13:31:11;;;;;;;0.60;0.60;;;;;;;25.49;38.81;95697.81;4285617;33;20266;-60
2022/08/11 13:33:55;;;;;;;0.53;0.53;;;;;;;25.51;38.62;95686.56;4287483;33;20214;-62
2022/08/11 13:36:26;;;;;;;0.57;0.57;;;;;;;25.54;38.46;95680.37;4271562;33;20226;-62
2022/08/11 13:38:53;;;;;;;1.23;1.03;;;;;;;25.56;38.63;95688.94;4284875;33;20191;-61
2022/08/11 13:41:38;;;;;;;0.73;0.73;;;;;;;25.64;38.22;95695.97;4284728;33;20199;-63
2022/08/11 13:44:05;;;;;;;0.60;0.60;;;;;;;25.63;38.26;95687.06;4284789;33;20194;-64
2022/08/11 13:46:32;;;;;;;0.40;0.40;;;;;;;25.73;37.98;95692.94;4274130;33;20234;-63
2022/08/11 13:48:59;;;;;;;0.30;0.30;;;;;;;25.67;38.19;95687.06;4285286;33;20207;-63
2022/08/11 13:51:35;;;;;;;1.90;0.50;;;;;;;25.57;38.25;95677.66;4285626;33;20195;-63
2022/08/11 13:54:06;;;;;;;0.70;0.70;;;;;;;25.55;38.21;95679.22;4271647;33;20190;-62
2022/08/11 13:56:34;;;;;;;0.20;0.20;;;;;;;25.55;38.19;95680.00;4287623;33;20294;-62
2022/08/11 13:59:02;;;;;;;0.30;0.30;;;;;;;25.56;38.44;95675.34;4290921;33;20195;-63
2022/08/11 14:01:31;;;;;;;0.67;0.67;;;;;;;25.60;38.27;95674.19;4287635;33;20236;-63
2022/08/11 14:04:08;;;;;;;0.47;0.47;;;;;;;25.57;38.44;95672.22;4295576;33;20205;-61
2022/08/11 14:06:37;;;;;;;0.53;0.53;;;;;;;25.66;37.98;95674.63;4286001;33;20190;-62
2022/08/11 14:09:07;;;;;;;0.37;0.37;;;;;;;25.69;37.86;95673.88;4284493;33;20199;-63
2022/08/11 14:14:23;;;;;;;0.47;0.47;;;;;;;25.64;37.96;95671.53;4282606;33;20102;-62
2022/08/11 14:16:52;;;;;;;0.47;0.47;;;;;;;25.65;37.71;95668.44;4279378;33;20198;-62
2022/08/11 14:19:22;;;;;;;14.53;0.70;;;;;;;25.68;37.63;95669.59;4286228;33;20253;-61
2022/08/11 14:22:09;;;;;;;0.50;0.50;;;;;;;25.63;38.10;95665.31;4286601;33;20194;-61
2022/08/11 14:24:51;;;;;;;0.50;0.50;;;;;;;25.75;37.54;95677.78;4286889;33;20186;-61
2022/08/11 14:27:16;;;;;;;0.43;0.43;;;;;;;25.72;37.58;95669.63;4285707;33;20217;-62
2022/08/11 14:29:44;;;;;;;0.47;0.47;;;;;;;25.69;37.39;95679.31;4274382;33;20245;-62
2022/08/11 14:32:12;;;;;;;0.40;0.40;;;;;;;25.57;37.30;95672.22;4296670;33;20198;-61
2022/08/11 14:34:42;;;;;;;0.20;0.20;;;;;;;25.56;37.43;95672.63;4291212;33;20287;-62
2022/08/11 14:37:12;;;;;;;0.70;0.70;;;;;;;25.48;37.14;95671.03;4299617;33;20196;-61
2022/08/11 14:39:47;;;;;;;0.40;0.40;;;;;;;25.44;37.55;95664.78;4286793;33;20213;-61
2022/08/11 14:47:50;;;;;;;0.87;0.87;;;;;;;25.55;37.28;95671.06;4287170;33;20276;-62
2022/08/11 14:50:22;;;;;;;0.57;0.47;;;;;;;25.58;37.16;95667.56;4290059;33;20209;-62
2022/08/11 14:52:56;;;;;;;1.37;0.73;;;;;;;25.52;36.91;95661.75;4279673;33;20230;-63
2022/08/11 14:58:10;;;;;;;0.57;0.57;;;;;;;25.40;37.24;95666.72;4296906;33;20207;-62
2022/08/11 15:00:36;;;;;;;0.43;0.43;;;;;;;25.51;36.48;95659.41;4283204;33;20194;-62
2022/08/11 15:03:09;;;;;;;0.30;0.30;;;;;;;25.32;37.27;95655.81;4286821;33;20298;-62
2022/08/11 15:05:49;;;;;;;0.67;0.67;;;;;;;25.55;36.58;95657.50;4285210;33;20245;-62
2022/08/11 15:08:16;;;;;;;0.70;0.70;;;;;;;25.50;36.74;95664.06;4284743;33;20205;-62
2022/08/11 15:10:43;;;;;;;0.23;0.23;;;;;;;25.48;36.47;95658.22;4276607;33;20240;-63
2022/08/11 15:13:09;;;;;;;0.77;0.77;;;;;;;25.50;36.43;95647.75;4292199;33;20261;-62
2022/08/11 15:18:23;;;;;;;0.37;0.37;;;;;;;25.49;36.37;95656.28;4281051;33;20262;-63
2022/08/11 15:37:24;;;;;;;0.37;0.37;;;;;;;25.58;36.32;95657.47;4283201;33;20248;-62
2022/08/11 15:37:36;;;;;;;0.63;0.40;;;;;;;25.57;36.11;95645.06;4285680;33;20210;-64
2022/08/11 15:46:42;;;;;;;0.20;0.20;;;;;;;25.52;35.81;95644.66;4246392;33;20210;-63
2022/08/11 15:49:15;;;;;;;0.27;0.27;;;;;;;25.52;35.91;95636.50;4264854;33;20191;-63
2022/08/11 15:52:01;;;;;;;0.50;0.50;;;;;;;25.45;35.35;95637.25;4270564;33;20199;-64
2022/08/11 15:54:30;;;;;;;0.53;0.53;;;;;;;25.38;35.55;95637.19;4271602;33;20194;-62
2022/08/11 15:56:57;;;;;;;0.60;0.60;;;;;;;25.36;35.69;95633.31;4286776;33;20297;-63
2022/08/11 16:05:04;;;;;;;0.70;0.70;;;;;;;25.29;35.81;95636.78;4284570;33;20230;-62
2022/08/11 16:07:34;;;;;;;0.20;0.20;;;;;;;25.14;36.26;95632.44;4285892;33;20213;-62
2022/08/11 16:10:14;;;;;;;0.40;0.40;;;;;;;25.21;35.94;95622.38;4263118;33;20257;-62
2022/08/11 16:18:24;;;;;;;0.30;0.30;;;;;;;25.23;34.70;95625.50;4276348;33;20198;-63
2022/08/11 16:20:54;;;;;;;1.97;0.63;;;;;;;25.07;35.16;95632.38;4278572;33;20201;-62
2022/08/11 16:23:25;;;;;;;0.63;0.50;;;;;;;25.10;34.79;95621.53;4283151;33;20204;-63
2022/08/11 16:25:53;;;;;;;0.40;0.40;;;;;;;24.97;35.56;95620.28;4283571;33;20246;-62
2022/08/11 16:28:21;;;;;;;0.10;0.10;;;;;;;25.13;34.50;95626.22;4274738;33;20191;-63
2022/08/11 16:30:48;;;;;;;0.50;0.50;;;;;;;25.12;34.27;95619.22;4271034;33;20195;-61
2022/08/11 16:33:14;;;;;;;0.63;0.63;;;;;;;25.17;34.42;95621.56;4282054;33;20186;-63
2022/08/11 16:38:34;;;;;;;1.03;0.87;;;;;;;25.16;34.74;95630.88;4283952;33;20254;-62
2022/08/11 16:46:59;;;;;;;0.30;0.30;;;;;;;25.09;35.17;95617.28;4283784;33;20257;-61
2022/08/11 16:49:34;;;;;;;0.40;0.40;;;;;;;25.01;35.46;95612.94;4285415;33;20257;-61
2022/08/11 16:52:02;;;;;;;0.90;0.90;;;;;;;25.02;35.53;95611.78;4270743;33;20228;-61
2022/08/11 16:54:31;;;;;;;0.63;0.40;;;;;;;25.06;35.57;95617.25;4280708;33;20222;-61
2022/08/11 16:59:12;;;;;;;0.47;0.47;;;;;;;25.02;35.80;95611.00;4284405;33;20212;-61
2022/08/11 16:59:43;;;;;;;0.23;0.23;;;;;;;25.01;36.10;95612.94;4295548;33;20233;-62
2022/08/11 17:13:54;;;;;;;0.50;0.50;;;;;;;24.89;37.66;95622.16;4281645;33;20208;-62